sensor_id;sensor_type;location;lat;lon;timestamp;P1;durP1;ratioP1;P2;durP2;ratioP2
5133;SDS011;2585;48.696;10.066;2024-03-23T00:55:43;8.03;;;5.23;;
5133;SDS011;2585;48.696;10.066;2024-03-23T00:58:09;10.83;;;5.87;;
5133;SDS011;2585;48.696;10.066;2024-03-23T01:00:35;8.00;;;5.47;;
5133;SDS011;2585;48.696;10.066;2024-03-23T01:03:01;8.80;;;6.07;;
5133;SDS011;2585;48.696;10.066;2024-03-23T01:05:26;7.23;;;5.10;;
5133;SDS011;2585;48.696;10.066;2024-03-23T01:07:52;8.50;;;5.30;;
5133;SDS011;2585;48.696;10.066;2024-03-23T01:10:18;6.93;;;5.10;;
5133;SDS011;2585;48.696;10.066;2024-03-23T01:12:44;13.77;;;5.20;;
5133;SDS011;2585;48.696;10.066;2024-03-23T01:15:10;12.70;;;5.37;;
5133;SDS011;2585;48.696;10.066;2024-03-23T01:17:36;6.73;;;5.10;;
5133;SDS011;2585;48.696;10.066;2024-03-23T01:20:01;10.93;;;5.93;;
5133;SDS011;2585;48.696;10.066;2024-03-23T01:22:28;8.70;;;5.73;;
5133;SDS011;2585;48.696;10.066;2024-03-23T01:24:54;8.43;;;6.27;;
5133;SDS011;2585;48.696;10.066;2024-03-23T01:27:19;8.30;;;5.73;;
5133;SDS011;2585;48.696;10.066;2024-03-23T01:29:45;11.30;;;6.53;;
5133;SDS011;2585;48.696;10.066;2024-03-23T01:32:11;9.17;;;5.77;;
5133;SDS011;2585;48.696;10.066;2024-03-23T01:34:37;17.87;;;5.33;;
5133;SDS011;2585;48.696;10.066;2024-03-23T01:37:03;12.40;;;6.40;;
5133;SDS011;2585;48.696;10.066;2024-03-23T01:39:29;9.63;;;6.60;;
5133;SDS011;2585;48.696;10.066;2024-03-23T01:41:55;8.13;;;5.87;;
5133;SDS011;2585;48.696;10.066;2024-03-23T01:44:21;8.77;;;5.27;;
5133;SDS011;2585;48.696;10.066;2024-03-23T01:46:47;13.00;;;5.60;;
5133;SDS011;2585;48.696;10.066;2024-03-23T01:49:13;13.37;;;6.13;;
5133;SDS011;2585;48.696;10.066;2024-03-23T01:51:39;7.40;;;5.80;;
5133;SDS011;2585;48.696;10.066;2024-03-23T01:54:06;20.10;;;6.13;;
5133;SDS011;2585;48.696;10.066;2024-03-23T01:56:33;9.13;;;6.77;;
5133;SDS011;2585;48.696;10.066;2024-03-23T01:59:05;13.13;;;7.20;;
5133;SDS011;2585;48.696;10.066;2024-03-23T02:01:32;9.33;;;6.57;;
5133;SDS011;2585;48.696;10.066;2024-03-23T02:03:58;8.47;;;5.43;;
5133;SDS011;2585;48.696;10.066;2024-03-23T02:06:24;9.27;;;5.67;;
5133;SDS011;2585;48.696;10.066;2024-03-23T02:08:50;7.75;;;5.57;;
5133;SDS011;2585;48.696;10.066;2024-03-23T02:11:16;9.07;;;5.40;;
5133;SDS011;2585;48.696;10.066;2024-03-23T02:13:42;8.00;;;5.90;;
5133;SDS011;2585;48.696;10.066;2024-03-23T02:16:08;7.37;;;5.33;;
5133;SDS011;2585;48.696;10.066;2024-03-23T02:18:34;8.50;;;6.47;;
5133;SDS011;2585;48.696;10.066;2024-03-23T02:21:00;14.20;;;5.80;;
5133;SDS011;2585;48.696;10.066;2024-03-23T02:23:26;9.77;;;5.47;;
5133;SDS011;2585;48.696;10.066;2024-03-23T02:25:52;11.43;;;5.50;;
5133;SDS011;2585;48.696;10.066;2024-03-23T02:28:20;9.20;;;5.47;;
5133;SDS011;2585;48.696;10.066;2024-03-23T02:30:50;11.20;;;4.97;;
5133;SDS011;2585;48.696;10.066;2024-03-23T02:33:17;7.37;;;4.53;;
5133;SDS011;2585;48.696;10.066;2024-03-23T02:35:43;9.30;;;5.10;;
5133;SDS011;2585;48.696;10.066;2024-03-23T02:38:09;7.15;;;5.05;;
5133;SDS011;2585;48.696;10.066;2024-03-23T02:40:35;6.03;;;4.80;;
5133;SDS011;2585;48.696;10.066;2024-03-23T02:43:02;8.07;;;5.03;;
5133;SDS011;2585;48.696;10.066;2024-03-23T02:45:29;8.77;;;5.90;;
5133;SDS011;2585;48.696;10.066;2024-03-23T02:47:55;9.88;;;5.88;;
5133;SDS011;2585;48.696;10.066;2024-03-23T02:50:21;9.98;;;5.55;;
5133;SDS011;2585;48.696;10.066;2024-03-23T02:52:47;7.88;;;5.38;;
5133;SDS011;2585;48.696;10.066;2024-03-23T02:55:14;8.20;;;5.73;;
5133;SDS011;2585;48.696;10.066;2024-03-23T02:57:41;7.63;;;5.30;;
5133;SDS011;2585;48.696;10.066;2024-03-23T03:00:07;9.15;;;5.32;;
5133;SDS011;2585;48.696;10.066;2024-03-23T03:02:34;12.20;;;6.32;;
5133;SDS011;2585;48.696;10.066;2024-03-23T03:05:00;9.43;;;5.90;;
5133;SDS011;2585;48.696;10.066;2024-03-23T03:07:26;9.40;;;6.50;;
5133;SDS011;2585;48.696;10.066;2024-03-23T03:09:52;12.07;;;5.30;;
5133;SDS011;2585;48.696;10.066;2024-03-23T03:12:18;8.10;;;5.60;;
5133;SDS011;2585;48.696;10.066;2024-03-23T03:14:43;8.00;;;5.20;;
5133;SDS011;2585;48.696;10.066;2024-03-23T03:17:09;12.63;;;5.37;;
5133;SDS011;2585;48.696;10.066;2024-03-23T03:19:35;8.23;;;5.00;;
5133;SDS011;2585;48.696;10.066;2024-03-23T03:22:01;6.73;;;4.43;;
5133;SDS011;2585;48.696;10.066;2024-03-23T03:24:27;4.33;;;3.93;;
5133;SDS011;2585;48.696;10.066;2024-03-23T03:26:52;4.40;;;3.87;;
5133;SDS011;2585;48.696;10.066;2024-03-23T03:29:18;4.27;;;3.63;;
5133;SDS011;2585;48.696;10.066;2024-03-23T03:31:44;6.43;;;4.67;;
5133;SDS011;2585;48.696;10.066;2024-03-23T03:34:10;6.73;;;4.30;;
5133;SDS011;2585;48.696;10.066;2024-03-23T03:36:36;5.40;;;3.57;;
5133;SDS011;2585;48.696;10.066;2024-03-23T03:39:02;5.93;;;4.50;;
5133;SDS011;2585;48.696;10.066;2024-03-23T03:41:29;6.85;;;4.85;;
5133;SDS011;2585;48.696;10.066;2024-03-23T03:43:54;6.63;;;4.10;;
5133;SDS011;2585;48.696;10.066;2024-03-23T03:46:20;6.73;;;3.80;;
5133;SDS011;2585;48.696;10.066;2024-03-23T03:48:46;5.73;;;4.20;;
5133;SDS011;2585;48.696;10.066;2024-03-23T03:51:13;4.73;;;3.60;;
5133;SDS011;2585;48.696;10.066;2024-03-23T03:53:39;7.43;;;4.55;;
5133;SDS011;2585;48.696;10.066;2024-03-23T03:56:06;8.23;;;4.20;;
5133;SDS011;2585;48.696;10.066;2024-03-23T03:58:32;10.70;;;4.30;;
5133;SDS011;2585;48.696;10.066;2024-03-23T04:00:57;4.27;;;3.43;;
5133;SDS011;2585;48.696;10.066;2024-03-23T04:03:23;7.30;;;4.43;;
5133;SDS011;2585;48.696;10.066;2024-03-23T04:05:51;5.43;;;3.73;;
5133;SDS011;2585;48.696;10.066;2024-03-23T04:08:20;7.80;;;4.37;;
5133;SDS011;2585;48.696;10.066;2024-03-23T04:10:46;6.50;;;3.57;;
5133;SDS011;2585;48.696;10.066;2024-03-23T04:13:12;10.33;;;4.30;;
5133;SDS011;2585;48.696;10.066;2024-03-23T04:15:39;5.10;;;4.03;;
5133;SDS011;2585;48.696;10.066;2024-03-23T04:18:05;6.57;;;3.63;;
5133;SDS011;2585;48.696;10.066;2024-03-23T04:20:31;6.33;;;4.80;;
5133;SDS011;2585;48.696;10.066;2024-03-23T04:22:57;6.87;;;4.30;;
5133;SDS011;2585;48.696;10.066;2024-03-23T04:25:26;6.07;;;4.00;;
5133;SDS011;2585;48.696;10.066;2024-03-23T04:27:52;5.80;;;3.63;;
5133;SDS011;2585;48.696;10.066;2024-03-23T04:30:18;7.67;;;3.80;;
5133;SDS011;2585;48.696;10.066;2024-03-23T04:32:44;6.37;;;4.37;;
5133;SDS011;2585;48.696;10.066;2024-03-23T04:35:10;5.37;;;3.47;;
5133;SDS011;2585;48.696;10.066;2024-03-23T04:37:36;4.30;;;3.40;;
5133;SDS011;2585;48.696;10.066;2024-03-23T04:40:03;5.37;;;3.50;;
5133;SDS011;2585;48.696;10.066;2024-03-23T04:42:31;8.03;;;3.00;;
5133;SDS011;2585;48.696;10.066;2024-03-23T04:44:57;5.47;;;3.30;;
5133;SDS011;2585;48.696;10.066;2024-03-23T04:47:23;6.30;;;3.13;;
5133;SDS011;2585;48.696;10.066;2024-03-23T04:49:49;4.23;;;2.77;;
5133;SDS011;2585;48.696;10.066;2024-03-23T04:52:15;4.33;;;3.10;;
5133;SDS011;2585;48.696;10.066;2024-03-23T04:54:42;3.50;;;2.83;;
5133;SDS011;2585;48.696;10.066;2024-03-23T04:57:08;4.50;;;2.70;;
5133;SDS011;2585;48.696;10.066;2024-03-23T04:59:33;4.70;;;2.60;;
5133;SDS011;2585;48.696;10.066;2024-03-23T05:01:59;3.10;;;2.83;;
5133;SDS011;2585;48.696;10.066;2024-03-23T05:04:26;3.43;;;2.77;;
5133;SDS011;2585;48.696;10.066;2024-03-23T05:06:52;4.67;;;2.57;;
5133;SDS011;2585;48.696;10.066;2024-03-23T05:09:17;6.93;;;2.77;;
5133;SDS011;2585;48.696;10.066;2024-03-23T05:11:43;4.13;;;2.90;;
5133;SDS011;2585;48.696;10.066;2024-03-23T05:14:12;5.72;;;2.83;;
5133;SDS011;2585;48.696;10.066;2024-03-23T05:16:41;4.73;;;2.97;;
5133;SDS011;2585;48.696;10.066;2024-03-23T05:19:07;4.70;;;2.60;;
5133;SDS011;2585;48.696;10.066;2024-03-23T05:21:33;5.63;;;3.50;;
5133;SDS011;2585;48.696;10.066;2024-03-23T05:23:58;4.37;;;3.03;;
5133;SDS011;2585;48.696;10.066;2024-03-23T05:26:24;4.50;;;2.93;;
5133;SDS011;2585;48.696;10.066;2024-03-23T05:28:50;3.87;;;2.70;;
5133;SDS011;2585;48.696;10.066;2024-03-23T05:31:26;5.70;;;3.03;;
5133;SDS011;2585;48.696;10.066;2024-03-23T05:33:52;6.03;;;4.27;;
5133;SDS011;2585;48.696;10.066;2024-03-23T05:36:18;6.60;;;4.77;;
5133;SDS011;2585;48.696;10.066;2024-03-23T05:38:44;10.53;;;6.43;;
5133;SDS011;2585;48.696;10.066;2024-03-23T05:41:10;6.70;;;5.20;;
5133;SDS011;2585;48.696;10.066;2024-03-23T05:43:36;4.40;;;3.93;;
5133;SDS011;2585;48.696;10.066;2024-03-23T05:46:02;7.43;;;4.60;;
5133;SDS011;2585;48.696;10.066;2024-03-23T05:48:29;6.63;;;4.93;;
5133;SDS011;2585;48.696;10.066;2024-03-23T05:50:56;6.60;;;4.63;;
5133;SDS011;2585;48.696;10.066;2024-03-23T05:53:22;5.10;;;4.60;;
5133;SDS011;2585;48.696;10.066;2024-03-23T05:55:49;7.30;;;4.60;;
5133;SDS011;2585;48.696;10.066;2024-03-23T05:58:16;9.40;;;6.47;;
5133;SDS011;2585;48.696;10.066;2024-03-23T06:00:44;15.40;;;7.90;;
5133;SDS011;2585;48.696;10.066;2024-03-23T06:03:10;14.37;;;10.43;;
5133;SDS011;2585;48.696;10.066;2024-03-23T06:05:39;18.13;;;9.50;;
5133;SDS011;2585;48.696;10.066;2024-03-23T06:08:05;19.20;;;12.63;;
5133;SDS011;2585;48.696;10.066;2024-03-23T06:10:32;17.00;;;11.10;;
5133;SDS011;2585;48.696;10.066;2024-03-23T06:12:58;18.40;;;10.10;;
5133;SDS011;2585;48.696;10.066;2024-03-23T06:15:24;17.13;;;10.77;;
5133;SDS011;2585;48.696;10.066;2024-03-23T06:17:51;15.93;;;9.13;;
5133;SDS011;2585;48.696;10.066;2024-03-23T06:20:17;19.07;;;10.47;;
5133;SDS011;2585;48.696;10.066;2024-03-23T06:22:43;15.43;;;10.03;;
5133;SDS011;2585;48.696;10.066;2024-03-23T06:25:08;20.97;;;11.47;;
5133;SDS011;2585;48.696;10.066;2024-03-23T06:27:34;19.20;;;9.50;;
5133;SDS011;2585;48.696;10.066;2024-03-23T06:30:00;14.20;;;9.40;;
5133;SDS011;2585;48.696;10.066;2024-03-23T06:32:27;13.70;;;8.33;;
5133;SDS011;2585;48.696;10.066;2024-03-23T06:34:54;13.13;;;7.90;;
5133;SDS011;2585;48.696;10.066;2024-03-23T06:37:20;10.40;;;7.43;;
5133;SDS011;2585;48.696;10.066;2024-03-23T06:39:46;6.93;;;5.10;;
5133;SDS011;2585;48.696;10.066;2024-03-23T06:42:12;7.73;;;5.33;;
5133;SDS011;2585;48.696;10.066;2024-03-23T06:44:38;7.30;;;5.27;;
5133;SDS011;2585;48.696;10.066;2024-03-23T06:47:05;9.93;;;5.80;;
5133;SDS011;2585;48.696;10.066;2024-03-23T06:49:31;8.60;;;5.20;;
5133;SDS011;2585;48.696;10.066;2024-03-23T06:51:57;13.20;;;7.17;;
5133;SDS011;2585;48.696;10.066;2024-03-23T06:54:24;11.13;;;6.53;;
5133;SDS011;2585;48.696;10.066;2024-03-23T06:56:50;7.80;;;5.20;;
5133;SDS011;2585;48.696;10.066;2024-03-23T06:59:16;6.90;;;4.57;;
5133;SDS011;2585;48.696;10.066;2024-03-23T07:01:42;5.67;;;4.33;;
5133;SDS011;2585;48.696;10.066;2024-03-23T07:04:07;7.20;;;4.50;;
5133;SDS011;2585;48.696;10.066;2024-03-23T07:06:33;5.23;;;3.53;;
5133;SDS011;2585;48.696;10.066;2024-03-23T07:08:59;8.83;;;4.07;;
5133;SDS011;2585;48.696;10.066;2024-03-23T07:11:25;5.53;;;3.57;;
5133;SDS011;2585;48.696;10.066;2024-03-23T07:13:52;4.47;;;3.10;;
5133;SDS011;2585;48.696;10.066;2024-03-23T07:16:21;3.90;;;2.70;;
5133;SDS011;2585;48.696;10.066;2024-03-23T07:18:47;3.63;;;2.17;;
5133;SDS011;2585;48.696;10.066;2024-03-23T07:21:12;4.17;;;2.50;;
5133;SDS011;2585;48.696;10.066;2024-03-23T07:23:41;4.27;;;2.73;;
5133;SDS011;2585;48.696;10.066;2024-03-23T07:26:10;5.30;;;3.00;;
5133;SDS011;2585;48.696;10.066;2024-03-23T07:28:36;2.77;;;2.50;;
5133;SDS011;2585;48.696;10.066;2024-03-23T07:31:20;2.87;;;2.10;;
5133;SDS011;2585;48.696;10.066;2024-03-23T07:33:48;2.70;;;2.10;;
5133;SDS011;2585;48.696;10.066;2024-03-23T07:36:14;5.77;;;2.73;;
5133;SDS011;2585;48.696;10.066;2024-03-23T07:38:41;3.03;;;2.80;;
5133;SDS011;2585;48.696;10.066;2024-03-23T07:41:25;5.30;;;2.80;;
5133;SDS011;2585;48.696;10.066;2024-03-23T07:43:53;7.27;;;2.17;;
5133;SDS011;2585;48.696;10.066;2024-03-23T07:46:20;3.30;;;2.13;;
5133;SDS011;2585;48.696;10.066;2024-03-23T07:48:46;2.50;;;1.90;;
5133;SDS011;2585;48.696;10.066;2024-03-23T07:51:19;2.50;;;2.03;;
5133;SDS011;2585;48.696;10.066;2024-03-23T07:53:46;1.43;;;1.20;;
5133;SDS011;2585;48.696;10.066;2024-03-23T07:56:13;2.43;;;1.70;;
5133;SDS011;2585;48.696;10.066;2024-03-23T07:58:41;1.47;;;1.37;;
5133;SDS011;2585;48.696;10.066;2024-03-23T08:01:07;1.50;;;1.33;;
5133;SDS011;2585;48.696;10.066;2024-03-23T08:03:34;1.20;;;1.10;;
5133;SDS011;2585;48.696;10.066;2024-03-23T08:06:06;1.43;;;1.33;;
5133;SDS011;2585;48.696;10.066;2024-03-23T08:08:39;2.03;;;1.80;;
5133;SDS011;2585;48.696;10.066;2024-03-23T08:11:06;1.80;;;1.37;;
5133;SDS011;2585;48.696;10.066;2024-03-23T08:13:33;1.20;;;1.10;;
5133;SDS011;2585;48.696;10.066;2024-03-23T08:16:01;1.70;;;1.43;;
5133;SDS011;2585;48.696;10.066;2024-03-23T08:18:29;1.00;;;0.90;;
5133;SDS011;2585;48.696;10.066;2024-03-23T08:20:58;4.13;;;1.70;;
5133;SDS011;2585;48.696;10.066;2024-03-23T08:23:25;2.97;;;1.57;;
5133;SDS011;2585;48.696;10.066;2024-03-23T08:25:58;2.47;;;1.83;;
5133;SDS011;2585;48.696;10.066;2024-03-23T08:28:26;1.30;;;1.10;;
5133;SDS011;2585;48.696;10.066;2024-03-23T08:30:52;1.30;;;1.20;;
5133;SDS011;2585;48.696;10.066;2024-03-23T08:33:19;1.60;;;1.50;;
5133;SDS011;2585;48.696;10.066;2024-03-23T08:35:54;1.40;;;1.17;;
5133;SDS011;2585;48.696;10.066;2024-03-23T08:38:24;1.20;;;1.00;;
5133;SDS011;2585;48.696;10.066;2024-03-23T08:43:31;1.30;;;1.20;;
5133;SDS011;2585;48.696;10.066;2024-03-23T08:46:10;1.10;;;0.90;;
5133;SDS011;2585;48.696;10.066;2024-03-23T08:48:38;1.07;;;0.97;;
5133;SDS011;2585;48.696;10.066;2024-03-23T08:51:06;1.10;;;1.00;;
5133;SDS011;2585;48.696;10.066;2024-03-23T08:53:33;1.10;;;1.00;;
5133;SDS011;2585;48.696;10.066;2024-03-23T08:56:03;1.67;;;1.20;;
5133;SDS011;2585;48.696;10.066;2024-03-23T08:58:29;1.13;;;1.00;;
5133;SDS011;2585;48.696;10.066;2024-03-23T09:00:57;1.30;;;1.20;;
5133;SDS011;2585;48.696;10.066;2024-03-23T09:03:28;2.10;;;1.00;;
5133;SDS011;2585;48.696;10.066;2024-03-23T09:05:54;1.10;;;1.00;;
5133;SDS011;2585;48.696;10.066;2024-03-23T09:08:21;0.80;;;0.80;;
5133;SDS011;2585;48.696;10.066;2024-03-23T09:10:47;1.67;;;1.30;;
5133;SDS011;2585;48.696;10.066;2024-03-23T09:13:13;1.00;;;0.90;;
5133;SDS011;2585;48.696;10.066;2024-03-23T09:15:46;1.13;;;0.90;;
5133;SDS011;2585;48.696;10.066;2024-03-23T09:18:16;1.67;;;1.20;;
5133;SDS011;2585;48.696;10.066;2024-03-23T09:20:42;1.10;;;1.00;;
5133;SDS011;2585;48.696;10.066;2024-03-23T09:23:08;2.50;;;1.10;;
5133;SDS011;2585;48.696;10.066;2024-03-23T09:25:37;1.23;;;1.13;;
5133;SDS011;2585;48.696;10.066;2024-03-23T09:28:04;1.13;;;1.00;;
5133;SDS011;2585;48.696;10.066;2024-03-23T09:30:35;1.20;;;1.07;;
5133;SDS011;2585;48.696;10.066;2024-03-23T09:33:02;1.20;;;1.10;;
5133;SDS011;2585;48.696;10.066;2024-03-23T09:35:29;1.63;;;1.33;;
5133;SDS011;2585;48.696;10.066;2024-03-23T09:37:54;1.77;;;1.30;;
5133;SDS011;2585;48.696;10.066;2024-03-23T09:40:20;4.20;;;1.40;;
5133;SDS011;2585;48.696;10.066;2024-03-23T09:42:50;1.63;;;1.20;;
5133;SDS011;2585;48.696;10.066;2024-03-23T09:45:17;2.53;;;1.33;;
5133;SDS011;2585;48.696;10.066;2024-03-23T09:47:46;2.90;;;1.87;;
5133;SDS011;2585;48.696;10.066;2024-03-23T09:50:13;5.00;;;2.50;;
5133;SDS011;2585;48.696;10.066;2024-03-23T09:52:39;2.57;;;1.70;;
5133;SDS011;2585;48.696;10.066;2024-03-23T09:55:07;2.93;;;2.17;;
5133;SDS011;2585;48.696;10.066;2024-03-23T09:57:34;4.10;;;1.80;;
5133;SDS011;2585;48.696;10.066;2024-03-23T10:00:00;4.27;;;1.87;;
5133;SDS011;2585;48.696;10.066;2024-03-23T10:02:26;5.63;;;1.90;;
5133;SDS011;2585;48.696;10.066;2024-03-23T10:04:54;2.40;;;2.00;;
5133;SDS011;2585;48.696;10.066;2024-03-23T10:07:20;2.57;;;1.60;;
5133;SDS011;2585;48.696;10.066;2024-03-23T10:09:47;3.73;;;1.70;;
5133;SDS011;2585;48.696;10.066;2024-03-23T10:12:17;3.50;;;2.00;;
5133;SDS011;2585;48.696;10.066;2024-03-23T10:14:44;3.57;;;2.00;;
5133;SDS011;2585;48.696;10.066;2024-03-23T10:24:44;4.90;;;2.00;;
5133;SDS011;2585;48.696;10.066;2024-03-23T10:27:17;2.73;;;1.97;;
5133;SDS011;2585;48.696;10.066;2024-03-23T10:29:47;8.33;;;2.17;;
5133;SDS011;2585;48.696;10.066;2024-03-23T10:32:14;7.47;;;2.10;;
5133;SDS011;2585;48.696;10.066;2024-03-23T10:34:41;5.67;;;3.07;;
5133;SDS011;2585;48.696;10.066;2024-03-23T10:37:07;9.37;;;2.80;;
5133;SDS011;2585;48.696;10.066;2024-03-23T10:42:01;8.27;;;2.40;;
5133;SDS011;2585;48.696;10.066;2024-03-23T10:44:29;7.00;;;2.10;;
5133;SDS011;2585;48.696;10.066;2024-03-23T10:46:56;6.43;;;2.30;;
5133;SDS011;2585;48.696;10.066;2024-03-23T10:49:30;4.10;;;2.60;;
5133;SDS011;2585;48.696;10.066;2024-03-23T10:52:01;4.03;;;2.13;;
5133;SDS011;2585;48.696;10.066;2024-03-23T10:54:32;6.47;;;3.30;;
5133;SDS011;2585;48.696;10.066;2024-03-23T10:57:12;4.07;;;2.17;;
5133;SDS011;2585;48.696;10.066;2024-03-23T10:59:40;5.90;;;2.47;;
5133;SDS011;2585;48.696;10.066;2024-03-23T11:02:07;6.47;;;2.63;;
5133;SDS011;2585;48.696;10.066;2024-03-23T11:04:44;3.03;;;2.20;;
5133;SDS011;2585;48.696;10.066;2024-03-23T11:09:57;9.83;;;2.97;;
5133;SDS011;2585;48.696;10.066;2024-03-23T11:14:57;4.87;;;2.93;;
5133;SDS011;2585;48.696;10.066;2024-03-23T11:17:30;6.63;;;2.33;;
5133;SDS011;2585;48.696;10.066;2024-03-23T11:20:00;4.60;;;2.40;;
5133;SDS011;2585;48.696;10.066;2024-03-23T11:25:15;12.10;;;2.57;;
5133;SDS011;2585;48.696;10.066;2024-03-23T11:27:42;4.10;;;2.33;;
5133;SDS011;2585;48.696;10.066;2024-03-23T11:33:03;9.50;;;3.03;;
5133;SDS011;2585;48.696;10.066;2024-03-23T11:35:33;8.90;;;2.83;;
5133;SDS011;2585;48.696;10.066;2024-03-23T11:38:05;3.97;;;2.67;;
5133;SDS011;2585;48.696;10.066;2024-03-23T11:40:52;6.00;;;2.63;;
5133;SDS011;2585;48.696;10.066;2024-03-23T11:43:19;13.60;;;3.07;;
5133;SDS011;2585;48.696;10.066;2024-03-23T11:45:48;11.73;;;2.77;;
5133;SDS011;2585;48.696;10.066;2024-03-23T11:48:19;8.43;;;2.60;;
5133;SDS011;2585;48.696;10.066;2024-03-23T11:50:46;6.93;;;3.00;;
5133;SDS011;2585;48.696;10.066;2024-03-23T11:53:17;12.87;;;3.23;;
5133;SDS011;2585;48.696;10.066;2024-03-23T11:55:51;8.37;;;2.93;;
5133;SDS011;2585;48.696;10.066;2024-03-23T11:58:21;5.73;;;3.00;;
5133;SDS011;2585;48.696;10.066;2024-03-23T12:00:52;3.60;;;2.10;;
5133;SDS011;2585;48.696;10.066;2024-03-23T12:03:20;3.53;;;2.53;;
5133;SDS011;2585;48.696;10.066;2024-03-23T12:05:51;6.67;;;2.00;;
5133;SDS011;2585;48.696;10.066;2024-03-23T12:08:24;2.13;;;1.57;;
5133;SDS011;2585;48.696;10.066;2024-03-23T12:13:41;2.03;;;1.70;;
5133;SDS011;2585;48.696;10.066;2024-03-23T12:16:18;2.87;;;1.80;;
5133;SDS011;2585;48.696;10.066;2024-03-23T12:18:46;1.80;;;1.50;;
5133;SDS011;2585;48.696;10.066;2024-03-23T12:21:13;3.63;;;2.40;;
5133;SDS011;2585;48.696;10.066;2024-03-23T12:23:39;6.03;;;3.97;;
5133;SDS011;2585;48.696;10.066;2024-03-23T12:26:06;2.63;;;2.07;;
5133;SDS011;2585;48.696;10.066;2024-03-23T12:28:32;3.10;;;2.20;;
5133;SDS011;2585;48.696;10.066;2024-03-23T12:30:58;2.87;;;2.13;;
5133;SDS011;2585;48.696;10.066;2024-03-23T12:33:24;2.00;;;1.67;;
5133;SDS011;2585;48.696;10.066;2024-03-23T12:35:50;4.87;;;2.10;;
5133;SDS011;2585;48.696;10.066;2024-03-23T12:38:17;2.40;;;1.90;;
5133;SDS011;2585;48.696;10.066;2024-03-23T12:40:46;3.57;;;2.33;;
5133;SDS011;2585;48.696;10.066;2024-03-23T12:43:15;3.30;;;2.10;;
5133;SDS011;2585;48.696;10.066;2024-03-23T12:45:45;2.90;;;1.77;;
5133;SDS011;2585;48.696;10.066;2024-03-23T12:48:16;3.43;;;2.03;;
5133;SDS011;2585;48.696;10.066;2024-03-23T12:50:42;2.20;;;2.00;;
5133;SDS011;2585;48.696;10.066;2024-03-23T12:53:08;2.97;;;2.07;;
5133;SDS011;2585;48.696;10.066;2024-03-23T12:55:37;3.60;;;2.10;;
5133;SDS011;2585;48.696;10.066;2024-03-23T12:58:03;3.47;;;1.93;;
5133;SDS011;2585;48.696;10.066;2024-03-23T13:00:29;3.70;;;1.80;;
5133;SDS011;2585;48.696;10.066;2024-03-23T13:02:55;9.00;;;2.50;;
5133;SDS011;2585;48.696;10.066;2024-03-23T13:05:21;4.60;;;2.20;;
5133;SDS011;2585;48.696;10.066;2024-03-23T13:07:47;5.87;;;2.30;;
5133;SDS011;2585;48.696;10.066;2024-03-23T13:10:13;6.20;;;2.17;;
5133;SDS011;2585;48.696;10.066;2024-03-23T13:12:40;6.73;;;2.27;;
5133;SDS011;2585;48.696;10.066;2024-03-23T13:15:05;7.20;;;2.10;;
5133;SDS011;2585;48.696;10.066;2024-03-23T13:17:32;4.60;;;1.80;;
5133;SDS011;2585;48.696;10.066;2024-03-23T13:19:58;2.80;;;2.10;;
5133;SDS011;2585;48.696;10.066;2024-03-23T13:22:23;4.13;;;2.20;;
5133;SDS011;2585;48.696;10.066;2024-03-23T13:24:49;6.13;;;2.30;;
5133;SDS011;2585;48.696;10.066;2024-03-23T13:27:15;6.50;;;2.60;;
5133;SDS011;2585;48.696;10.066;2024-03-23T13:29:41;5.30;;;1.80;;
5133;SDS011;2585;48.696;10.066;2024-03-23T13:32:07;8.30;;;2.27;;
5133;SDS011;2585;48.696;10.066;2024-03-23T13:34:34;4.87;;;1.93;;
5133;SDS011;2585;48.696;10.066;2024-03-23T13:37:00;3.57;;;2.37;;
5133;SDS011;2585;48.696;10.066;2024-03-23T13:39:26;6.83;;;1.80;;
5133;SDS011;2585;48.696;10.066;2024-03-23T13:41:53;5.10;;;1.80;;
5133;SDS011;2585;48.696;10.066;2024-03-23T13:44:20;6.33;;;2.00;;
5133;SDS011;2585;48.696;10.066;2024-03-23T13:46:46;10.13;;;2.77;;
5133;SDS011;2585;48.696;10.066;2024-03-23T13:51:55;3.97;;;2.00;;
5133;SDS011;2585;48.696;10.066;2024-03-23T13:54:22;5.70;;;2.13;;
5133;SDS011;2585;48.696;10.066;2024-03-23T13:56:49;4.23;;;1.77;;
5133;SDS011;2585;48.696;10.066;2024-03-23T13:59:16;3.73;;;2.00;;
5133;SDS011;2585;48.696;10.066;2024-03-23T14:01:42;8.60;;;2.10;;
5133;SDS011;2585;48.696;10.066;2024-03-23T14:04:11;8.50;;;2.93;;
5133;SDS011;2585;48.696;10.066;2024-03-23T14:06:37;4.40;;;2.37;;
5133;SDS011;2585;48.696;10.066;2024-03-23T14:09:03;9.83;;;3.50;;
5133;SDS011;2585;48.696;10.066;2024-03-23T14:11:29;6.93;;;2.53;;
5133;SDS011;2585;48.696;10.066;2024-03-23T14:13:56;10.47;;;2.30;;
5133;SDS011;2585;48.696;10.066;2024-03-23T14:16:22;4.80;;;2.10;;
5133;SDS011;2585;48.696;10.066;2024-03-23T14:18:47;9.47;;;2.47;;
5133;SDS011;2585;48.696;10.066;2024-03-23T14:21:13;8.13;;;3.07;;
5133;SDS011;2585;48.696;10.066;2024-03-23T14:23:39;5.97;;;2.37;;
5133;SDS011;2585;48.696;10.066;2024-03-23T14:26:08;5.53;;;2.57;;
5133;SDS011;2585;48.696;10.066;2024-03-23T14:28:34;6.63;;;2.53;;
5133;SDS011;2585;48.696;10.066;2024-03-23T14:31:00;6.93;;;2.70;;
5133;SDS011;2585;48.696;10.066;2024-03-23T14:33:26;4.93;;;2.30;;
5133;SDS011;2585;48.696;10.066;2024-03-23T14:35:55;8.63;;;2.67;;
5133;SDS011;2585;48.696;10.066;2024-03-23T14:38:24;8.60;;;2.63;;
5133;SDS011;2585;48.696;10.066;2024-03-23T14:40:50;5.60;;;2.00;;
5133;SDS011;2585;48.696;10.066;2024-03-23T14:43:19;2.90;;;1.93;;
5133;SDS011;2585;48.696;10.066;2024-03-23T14:48:34;4.53;;;1.67;;
5133;SDS011;2585;48.696;10.066;2024-03-23T14:51:00;7.23;;;1.70;;
5133;SDS011;2585;48.696;10.066;2024-03-23T14:53:29;4.37;;;2.10;;
5133;SDS011;2585;48.696;10.066;2024-03-23T14:55:56;8.73;;;2.70;;
5133;SDS011;2585;48.696;10.066;2024-03-23T14:58:22;8.53;;;2.40;;
5133;SDS011;2585;48.696;10.066;2024-03-23T15:00:50;3.23;;;2.07;;
5133;SDS011;2585;48.696;10.066;2024-03-23T15:03:17;7.30;;;2.00;;
5133;SDS011;2585;48.696;10.066;2024-03-23T15:05:56;8.93;;;2.20;;
5133;SDS011;2585;48.696;10.066;2024-03-23T15:08:24;3.97;;;1.80;;
5133;SDS011;2585;48.696;10.066;2024-03-23T15:10:50;4.70;;;1.87;;
5133;SDS011;2585;48.696;10.066;2024-03-23T15:13:17;4.80;;;1.87;;
5133;SDS011;2585;48.696;10.066;2024-03-23T15:15:43;5.83;;;1.80;;
5133;SDS011;2585;48.696;10.066;2024-03-23T15:18:13;2.73;;;1.30;;
5133;SDS011;2585;48.696;10.066;2024-03-23T15:21:00;5.70;;;2.13;;
5133;SDS011;2585;48.696;10.066;2024-03-23T15:23:37;3.43;;;1.43;;
5133;SDS011;2585;48.696;10.066;2024-03-23T15:26:03;2.90;;;1.70;;
5133;SDS011;2585;48.696;10.066;2024-03-23T15:28:31;3.67;;;1.30;;
5133;SDS011;2585;48.696;10.066;2024-03-23T15:31:08;13.07;;;1.40;;
5133;SDS011;2585;48.696;10.066;2024-03-23T15:33:35;2.23;;;1.40;;
5133;SDS011;2585;48.696;10.066;2024-03-23T15:36:04;1.90;;;1.43;;
5133;SDS011;2585;48.696;10.066;2024-03-23T15:38:31;4.27;;;1.83;;
5133;SDS011;2585;48.696;10.066;2024-03-23T15:40:58;4.40;;;1.67;;
5133;SDS011;2585;48.696;10.066;2024-03-23T15:43:24;7.20;;;2.03;;
5133;SDS011;2585;48.696;10.066;2024-03-23T15:45:54;3.00;;;1.60;;
5133;SDS011;2585;48.696;10.066;2024-03-23T15:48:27;4.37;;;1.67;;
5133;SDS011;2585;48.696;10.066;2024-03-23T15:50:53;3.50;;;1.10;;
5133;SDS011;2585;48.696;10.066;2024-03-23T15:53:21;2.50;;;1.33;;
5133;SDS011;2585;48.696;10.066;2024-03-23T15:55:57;3.00;;;1.40;;
5133;SDS011;2585;48.696;10.066;2024-03-23T15:58:24;4.50;;;1.40;;
5133;SDS011;2585;48.696;10.066;2024-03-23T16:01:11;3.28;;;2.08;;
5133;SDS011;2585;48.696;10.066;2024-03-23T16:03:36;4.00;;;1.40;;
5133;SDS011;2585;48.696;10.066;2024-03-23T16:06:03;1.73;;;1.30;;
5133;SDS011;2585;48.696;10.066;2024-03-23T16:08:30;2.70;;;1.27;;
5133;SDS011;2585;48.696;10.066;2024-03-23T16:11:04;3.13;;;1.20;;
5133;SDS011;2585;48.696;10.066;2024-03-23T16:13:31;3.00;;;1.27;;
5133;SDS011;2585;48.696;10.066;2024-03-23T16:15:58;2.63;;;1.53;;
5133;SDS011;2585;48.696;10.066;2024-03-23T16:18:25;2.87;;;1.50;;
5133;SDS011;2585;48.696;10.066;2024-03-23T16:20:58;3.77;;;2.33;;
5133;SDS011;2585;48.696;10.066;2024-03-23T16:23:25;6.40;;;1.30;;
5133;SDS011;2585;48.696;10.066;2024-03-23T16:25:53;1.90;;;1.37;;
5133;SDS011;2585;48.696;10.066;2024-03-23T16:28:26;5.13;;;1.60;;